sensor_id;sensor_type;location;lat;lon;timestamp;temperature;humidity
35563;DHT22;21665;40.108;18.302;2023-07-29T00:01:49;22.20;99.90
35563;DHT22;21665;40.108;18.302;2023-07-29T00:04:15;22.20;99.90
35563;DHT22;21665;40.108;18.302;2023-07-29T00:06:42;22.10;99.90
35563;DHT22;21665;40.108;18.302;2023-07-29T00:09:08;22.10;99.90
35563;DHT22;21665;40.108;18.302;2023-07-29T00:11:35;22.10;99.90
35563;DHT22;21665;40.108;18.302;2023-07-29T00:14:02;22.00;99.90
35563;DHT22;21665;40.108;18.302;2023-07-29T00:16:28;22.00;99.90
35563;DHT22;21665;40.108;18.302;2023-07-29T00:18:55;22.00;99.90
35563;DHT22;21665;40.108;18.302;2023-07-29T00:21:21;21.90;99.90
35563;DHT22;21665;40.108;18.302;2023-07-29T00:23:48;21.90;99.90
35563;DHT22;21665;40.108;18.302;2023-07-29T00:26:35;21.90;99.90
35563;DHT22;21665;40.108;18.302;2023-07-29T00:29:02;22.00;99.90
35563;DHT22;21665;40.108;18.302;2023-07-29T00:31:28;22.00;99.90
35563;DHT22;21665;40.108;18.302;2023-07-29T00:33:54;22.00;99.90
35563;DHT22;21665;40.108;18.302;2023-07-29T00:36:21;22.00;99.90
35563;DHT22;21665;40.108;18.302;2023-07-29T00:38:48;21.90;99.90
35563;DHT22;21665;40.108;18.302;2023-07-29T00:41:15;21.90;99.90
35563;DHT22;21665;40.108;18.302;2023-07-29T00:43:42;21.90;99.90
35563;DHT22;21665;40.108;18.302;2023-07-29T00:46:09;22.00;99.90
35563;DHT22;21665;40.108;18.302;2023-07-29T00:48:36;21.90;99.90
35563;DHT22;21665;40.108;18.302;2023-07-29T00:51:02;21.90;99.90
35563;DHT22;21665;40.108;18.302;2023-07-29T00:53:29;21.90;99.90
35563;DHT22;21665;40.108;18.302;2023-07-29T00:55:55;21.90;99.90
35563;DHT22;21665;40.108;18.302;2023-07-29T00:58:25;21.90;99.90
35563;DHT22;21665;40.108;18.302;2023-07-29T01:00:52;21.80;99.90
35563;DHT22;21665;40.108;18.302;2023-07-29T01:03:20;21.70;99.90
35563;DHT22;21665;40.108;18.302;2023-07-29T01:06:09;21.70;99.90
35563;DHT22;21665;40.108;18.302;2023-07-29T01:09:04;21.60;99.90
35563;DHT22;21665;40.108;18.302;2023-07-29T01:11:38;21.60;99.90
35563;DHT22;21665;40.108;18.302;2023-07-29T01:16:58;21.50;99.90
35563;DHT22;21665;40.108;18.302;2023-07-29T01:19:55;21.50;99.90
35563;DHT22;21665;40.108;18.302;2023-07-29T01:22:29;21.50;99.90
35563;DHT22;21665;40.108;18.302;2023-07-29T01:24:59;21.50;99.90
35563;DHT22;21665;40.108;18.302;2023-07-29T01:27:26;21.40;99.90
35563;DHT22;21665;40.108;18.302;2023-07-29T01:29:53;21.50;99.90
35563;DHT22;21665;40.108;18.302;2023-07-29T01:38:29;21.40;99.90
35563;DHT22;21665;40.108;18.302;2023-07-29T01:40:59;21.40;99.90
35563;DHT22;21665;40.108;18.302;2023-07-29T01:43:31;21.40;99.90
35563;DHT22;21665;40.108;18.302;2023-07-29T01:45:58;21.50;99.90
35563;DHT22;21665;40.108;18.302;2023-07-29T01:48:25;21.40;99.90
35563;DHT22;21665;40.108;18.302;2023-07-29T01:50:53;21.40;99.90
35563;DHT22;21665;40.108;18.302;2023-07-29T01:53:20;21.40;99.90
35563;DHT22;21665;40.108;18.302;2023-07-29T01:55:47;21.40;99.90
35563;DHT22;21665;40.108;18.302;2023-07-29T01:58:14;21.30;99.90
35563;DHT22;21665;40.108;18.302;2023-07-29T02:00:45;21.30;99.90
35563;DHT22;21665;40.108;18.302;2023-07-29T02:03:12;21.20;99.90
35563;DHT22;21665;40.108;18.302;2023-07-29T02:05:39;21.20;99.90
35563;DHT22;21665;40.108;18.302;2023-07-29T02:08:06;21.30;99.90
35563;DHT22;21665;40.108;18.302;2023-07-29T02:10:33;21.30;99.90
35563;DHT22;21665;40.108;18.302;2023-07-29T02:12:59;21.30;99.90
35563;DHT22;21665;40.108;18.302;2023-07-29T02:15:26;21.30;99.90
35563;DHT22;21665;40.108;18.302;2023-07-29T02:17:52;21.30;99.90
35563;DHT22;21665;40.108;18.302;2023-07-29T02:20:19;21.30;99.90
35563;DHT22;21665;40.108;18.302;2023-07-29T02:22:45;21.30;99.90
35563;DHT22;21665;40.108;18.302;2023-07-29T02:25:13;21.20;99.90
35563;DHT22;21665;40.108;18.302;2023-07-29T02:27:40;21.10;99.90
35563;DHT22;21665;40.108;18.302;2023-07-29T02:30:07;21.10;99.90
35563;DHT22;21665;40.108;18.302;2023-07-29T02:32:36;21.00;99.90
35563;DHT22;21665;40.108;18.302;2023-07-29T02:35:03;21.00;99.90
35563;DHT22;21665;40.108;18.302;2023-07-29T02:37:31;21.00;99.90
35563;DHT22;21665;40.108;18.302;2023-07-29T02:39:58;20.90;99.90
35563;DHT22;21665;40.108;18.302;2023-07-29T02:42:24;20.90;99.90
35563;DHT22;21665;40.108;18.302;2023-07-29T02:44:50;20.90;99.90
35563;DHT22;21665;40.108;18.302;2023-07-29T02:47:17;20.90;99.90
35563;DHT22;21665;40.108;18.302;2023-07-29T02:49:47;20.90;99.90
35563;DHT22;21665;40.108;18.302;2023-07-29T02:52:14;20.90;99.90
35563;DHT22;21665;40.108;18.302;2023-07-29T02:54:40;20.90;99.90
35563;DHT22;21665;40.108;18.302;2023-07-29T02:57:06;21.00;99.90
35563;DHT22;21665;40.108;18.302;2023-07-29T02:59:33;21.00;99.90
35563;DHT22;21665;40.108;18.302;2023-07-29T03:01:59;21.00;99.90
35563;DHT22;21665;40.108;18.302;2023-07-29T03:04:26;21.10;99.90
35563;DHT22;21665;40.108;18.302;2023-07-29T03:06:52;21.10;99.90
35563;DHT22;21665;40.108;18.302;2023-07-29T03:09:19;21.10;99.90
35563;DHT22;21665;40.108;18.302;2023-07-29T03:11:45;21.20;99.90
35563;DHT22;21665;40.108;18.302;2023-07-29T03:14:12;21.20;99.90
35563;DHT22;21665;40.108;18.302;2023-07-29T03:16:39;21.20;99.90
35563;DHT22;21665;40.108;18.302;2023-07-29T03:19:05;21.20;99.90
35563;DHT22;21665;40.108;18.302;2023-07-29T03:21:32;21.10;99.90
35563;DHT22;21665;40.108;18.302;2023-07-29T03:23:59;21.10;99.90
35563;DHT22;21665;40.108;18.302;2023-07-29T03:26:26;21.10;99.90
35563;DHT22;21665;40.108;18.302;2023-07-29T03:28:53;21.00;99.90
35563;DHT22;21665;40.108;18.302;2023-07-29T03:31:20;20.90;99.90
35563;DHT22;21665;40.108;18.302;2023-07-29T03:33:47;20.90;99.90
35563;DHT22;21665;40.108;18.302;2023-07-29T03:36:14;20.80;99.90
35563;DHT22;21665;40.108;18.302;2023-07-29T03:38:41;20.70;99.90
35563;DHT22;21665;40.108;18.302;2023-07-29T03:41:09;20.60;99.90
35563;DHT22;21665;40.108;18.302;2023-07-29T03:43:35;20.50;99.90
35563;DHT22;21665;40.108;18.302;2023-07-29T03:46:02;20.50;99.90
35563;DHT22;21665;40.108;18.302;2023-07-29T03:48:29;20.40;99.90
35563;DHT22;21665;40.108;18.302;2023-07-29T03:50:57;20.40;99.90
35563;DHT22;21665;40.108;18.302;2023-07-29T03:53:24;20.50;99.90
35563;DHT22;21665;40.108;18.302;2023-07-29T03:55:54;20.50;99.90
35563;DHT22;21665;40.108;18.302;2023-07-29T03:58:21;20.70;99.90
35563;DHT22;21665;40.108;18.302;2023-07-29T04:00:48;20.80;99.90
35563;DHT22;21665;40.108;18.302;2023-07-29T04:03:15;20.80;99.90
35563;DHT22;21665;40.108;18.302;2023-07-29T04:05:42;20.90;99.90
35563;DHT22;21665;40.108;18.302;2023-07-29T04:08:09;20.90;99.90
35563;DHT22;21665;40.108;18.302;2023-07-29T04:10:35;21.00;99.90
35563;DHT22;21665;40.108;18.302;2023-07-29T04:13:04;21.10;99.90
35563;DHT22;21665;40.108;18.302;2023-07-29T04:15:30;21.20;99.90
35563;DHT22;21665;40.108;18.302;2023-07-29T04:17:57;21.20;99.90
35563;DHT22;21665;40.108;18.302;2023-07-29T04:20:24;21.30;99.90
35563;DHT22;21665;40.108;18.302;2023-07-29T04:22:50;21.40;99.90
35563;DHT22;21665;40.108;18.302;2023-07-29T04:25:17;21.50;99.90
35563;DHT22;21665;40.108;18.302;2023-07-29T04:27:43;21.60;99.90
35563;DHT22;21665;40.108;18.302;2023-07-29T04:30:12;21.60;99.90
35563;DHT22;21665;40.108;18.302;2023-07-29T04:32:42;21.70;99.90
35563;DHT22;21665;40.108;18.302;2023-07-29T04:35:09;21.80;99.90
35563;DHT22;21665;40.108;18.302;2023-07-29T04:37:36;21.90;99.90
35563;DHT22;21665;40.108;18.302;2023-07-29T04:40:03;22.00;99.90
35563;DHT22;21665;40.108;18.302;2023-07-29T04:42:32;22.10;99.90
35563;DHT22;21665;40.108;18.302;2023-07-29T04:44:59;22.30;99.90
35563;DHT22;21665;40.108;18.302;2023-07-29T04:47:25;22.50;99.90
35563;DHT22;21665;40.108;18.302;2023-07-29T04:49:52;22.80;99.90
35563;DHT22;21665;40.108;18.302;2023-07-29T04:52:18;23.10;99.90
35563;DHT22;21665;40.108;18.302;2023-07-29T04:54:45;23.90;99.90
35563;DHT22;21665;40.108;18.302;2023-07-29T04:57:12;24.70;99.90
35563;DHT22;21665;40.108;18.302;2023-07-29T04:59:38;25.70;99.90
35563;DHT22;21665;40.108;18.302;2023-07-29T05:02:05;26.50;99.90
35563;DHT22;21665;40.108;18.302;2023-07-29T05:04:31;27.30;99.90
35563;DHT22;21665;40.108;18.302;2023-07-29T05:06:58;28.40;99.90
35563;DHT22;21665;40.108;18.302;2023-07-29T05:09:24;29.80;99.90
35563;DHT22;21665;40.108;18.302;2023-07-29T07:32:55;35.10;99.90
35563;DHT22;21665;40.108;18.302;2023-07-29T07:35:21;34.70;99.90
35563;DHT22;21665;40.108;18.302;2023-07-29T07:37:48;34.80;99.90
35563;DHT22;21665;40.108;18.302;2023-07-29T07:40:14;35.00;99.90
35563;DHT22;21665;40.108;18.302;2023-07-29T07:42:41;35.20;99.90
35563;DHT22;21665;40.108;18.302;2023-07-29T07:45:08;35.70;99.90
35563;DHT22;21665;40.108;18.302;2023-07-29T07:47:34;35.10;99.90
35563;DHT22;21665;40.108;18.302;2023-07-29T07:50:01;34.90;99.90
35563;DHT22;21665;40.108;18.302;2023-07-29T07:52:28;35.10;99.90
35563;DHT22;21665;40.108;18.302;2023-07-29T07:55:17;35.70;99.90
35563;DHT22;21665;40.108;18.302;2023-07-29T07:57:44;35.50;99.90
35563;DHT22;21665;40.108;18.302;2023-07-29T08:00:13;35.50;99.90
35563;DHT22;21665;40.108;18.302;2023-07-29T08:02:43;35.80;99.90
35563;DHT22;21665;40.108;18.302;2023-07-29T08:05:10;35.70;99.90
35563;DHT22;21665;40.108;18.302;2023-07-29T08:07:36;36.10;99.90
35563;DHT22;21665;40.108;18.302;2023-07-29T08:10:03;36.40;99.90
35563;DHT22;21665;40.108;18.302;2023-07-29T08:12:29;37.00;99.90
35563;DHT22;21665;40.108;18.302;2023-07-29T08:14:56;37.00;99.90
35563;DHT22;21665;40.108;18.302;2023-07-29T08:17:22;37.10;99.90
35563;DHT22;21665;40.108;18.302;2023-07-29T08:19:48;37.30;99.90
35563;DHT22;21665;40.108;18.302;2023-07-29T08:22:15;36.40;99.90
35563;DHT22;21665;40.108;18.302;2023-07-29T08:24:43;36.30;99.90
35563;DHT22;21665;40.108;18.302;2023-07-29T08:27:10;35.80;99.90
35563;DHT22;21665;40.108;18.302;2023-07-29T08:29:36;35.80;99.90
35563;DHT22;21665;40.108;18.302;2023-07-29T08:32:03;35.30;99.90
35563;DHT22;21665;40.108;18.302;2023-07-29T08:34:30;34.80;99.90
35563;DHT22;21665;40.108;18.302;2023-07-29T08:36:57;34.70;99.90
35563;DHT22;21665;40.108;18.302;2023-07-29T08:39:23;35.10;99.90
35563;DHT22;21665;40.108;18.302;2023-07-29T08:41:58;35.70;99.90
35563;DHT22;21665;40.108;18.302;2023-07-29T08:44:32;36.10;99.90
35563;DHT22;21665;40.108;18.302;2023-07-29T08:47:01;36.40;99.90
35563;DHT22;21665;40.108;18.302;2023-07-29T08:49:28;36.50;99.90
35563;DHT22;21665;40.108;18.302;2023-07-29T08:51:57;36.10;99.90
35563;DHT22;21665;40.108;18.302;2023-07-29T08:54:25;35.90;99.90
35563;DHT22;21665;40.108;18.302;2023-07-29T08:56:52;36.30;99.90
35563;DHT22;21665;40.108;18.302;2023-07-29T08:59:19;35.60;99.90
35563;DHT22;21665;40.108;18.302;2023-07-29T09:01:49;36.20;99.90
35563;DHT22;21665;40.108;18.302;2023-07-29T09:04:16;36.20;99.90
35563;DHT22;21665;40.108;18.302;2023-07-29T09:06:44;36.00;99.90
35563;DHT22;21665;40.108;18.302;2023-07-29T09:09:13;36.00;99.90
35563;DHT22;21665;40.108;18.302;2023-07-29T09:11:39;36.60;99.90
35563;DHT22;21665;40.108;18.302;2023-07-29T09:14:06;37.30;99.90
35563;DHT22;21665;40.108;18.302;2023-07-29T09:16:32;37.10;99.90
35563;DHT22;21665;40.108;18.302;2023-07-29T09:19:03;36.90;99.90
35563;DHT22;21665;40.108;18.302;2023-07-29T09:21:31;36.30;99.90
35563;DHT22;21665;40.108;18.302;2023-07-29T09:24:03;35.20;99.90
35563;DHT22;21665;40.108;18.302;2023-07-29T09:26:34;34.60;99.90
35563;DHT22;21665;40.108;18.302;2023-07-29T09:29:01;34.40;99.90
35563;DHT22;21665;40.108;18.302;2023-07-29T09:31:29;34.30;99.90
35563;DHT22;21665;40.108;18.302;2023-07-29T09:34:00;34.40;99.90
35563;DHT22;21665;40.108;18.302;2023-07-29T09:36:29;35.00;99.90
35563;DHT22;21665;40.108;18.302;2023-07-29T09:38:57;35.20;99.90
35563;DHT22;21665;40.108;18.302;2023-07-29T09:41:28;34.80;99.90
35563;DHT22;21665;40.108;18.302;2023-07-29T09:43:59;33.70;99.90
35563;DHT22;21665;40.108;18.302;2023-07-29T09:46:33;34.00;99.90
35563;DHT22;21665;40.108;18.302;2023-07-29T09:49:06;34.80;99.90
35563;DHT22;21665;40.108;18.302;2023-07-29T09:51:38;35.20;99.90
35563;DHT22;21665;40.108;18.302;2023-07-29T09:54:05;34.50;99.90
35563;DHT22;21665;40.108;18.302;2023-07-29T09:56:32;34.40;99.90
35563;DHT22;21665;40.108;18.302;2023-07-29T09:58:59;34.60;99.90
35563;DHT22;21665;40.108;18.302;2023-07-29T10:01:26;34.50;99.90
35563;DHT22;21665;40.108;18.302;2023-07-29T10:03:53;34.40;99.90
35563;DHT22;21665;40.108;18.302;2023-07-29T10:06:23;34.30;99.90
35563;DHT22;21665;40.108;18.302;2023-07-29T10:08:51;33.80;99.90
35563;DHT22;21665;40.108;18.302;2023-07-29T10:11:18;33.60;99.90
35563;DHT22;21665;40.108;18.302;2023-07-29T10:13:48;33.70;99.90
35563;DHT22;21665;40.108;18.302;2023-07-29T10:16:15;33.80;99.90
35563;DHT22;21665;40.108;18.302;2023-07-29T10:18:42;34.20;99.90
35563;DHT22;21665;40.108;18.302;2023-07-29T10:21:10;34.30;99.90
35563;DHT22;21665;40.108;18.302;2023-07-29T10:23:40;34.30;99.90
35563;DHT22;21665;40.108;18.302;2023-07-29T10:26:10;34.40;99.90
35563;DHT22;21665;40.108;18.302;2023-07-29T10:28:40;34.60;99.90
35563;DHT22;21665;40.108;18.302;2023-07-29T10:31:08;35.00;99.90
35563;DHT22;21665;40.108;18.302;2023-07-29T10:33:34;34.70;99.90
35563;DHT22;21665;40.108;18.302;2023-07-29T10:36:03;35.00;99.90
35563;DHT22;21665;40.108;18.302;2023-07-29T10:38:31;34.50;99.90
35563;DHT22;21665;40.108;18.302;2023-07-29T10:40:59;34.20;99.90
35563;DHT22;21665;40.108;18.302;2023-07-29T10:43:36;33.80;99.90
35563;DHT22;21665;40.108;18.302;2023-07-29T10:46:20;33.80;99.90
35563;DHT22;21665;40.108;18.302;2023-07-29T10:51:37;34.40;99.90
35563;DHT22;21665;40.108;18.302;2023-07-29T10:54:13;34.00;99.90
35563;DHT22;21665;40.108;18.302;2023-07-29T10:56:42;33.80;99.90
35563;DHT22;21665;40.108;18.302;2023-07-29T11:01:58;33.80;99.90
35563;DHT22;21665;40.108;18.302;2023-07-29T11:04:26;34.10;99.90
35563;DHT22;21665;40.108;18.302;2023-07-29T11:12:36;33.60;99.90
35563;DHT22;21665;40.108;18.302;2023-07-29T11:15:12;33.80;99.90
35563;DHT22;21665;40.108;18.302;2023-07-29T11:17:41;33.80;99.90
35563;DHT22;21665;40.108;18.302;2023-07-29T11:20:09;33.90;99.90
35563;DHT22;21665;40.108;18.302;2023-07-29T11:22:36;33.90;99.90
35563;DHT22;21665;40.108;18.302;2023-07-29T11:25:03;34.10;99.90
35563;DHT22;21665;40.108;18.302;2023-07-29T11:27:31;34.20;99.90
35563;DHT22;21665;40.108;18.302;2023-07-29T11:30:04;34.60;99.80
35563;DHT22;21665;40.108;18.302;2023-07-29T11:32:38;34.50;99.70
35563;DHT22;21665;40.108;18.302;2023-07-29T11:35:08;34.50;99.40
35563;DHT22;21665;40.108;18.302;2023-07-29T11:37:40;34.20;99.50
35563;DHT22;21665;40.108;18.302;2023-07-29T11:40:07;34.10;99.60
35563;DHT22;21665;40.108;18.302;2023-07-29T11:42:37;33.60;99.50
35563;DHT22;21665;40.108;18.302;2023-07-29T11:45:08;33.60;99.80
35563;DHT22;21665;40.108;18.302;2023-07-29T11:47:36;33.70;99.90
35563;DHT22;21665;40.108;18.302;2023-07-29T11:50:08;33.80;99.50
35563;DHT22;21665;40.108;18.302;2023-07-29T11:52:44;34.10;99.20
35563;DHT22;21665;40.108;18.302;2023-07-29T11:55:13;34.00;99.00
35563;DHT22;21665;40.108;18.302;2023-07-29T11:57:40;34.10;99.10
35563;DHT22;21665;40.108;18.302;2023-07-29T12:00:09;34.40;99.40
35563;DHT22;21665;40.108;18.302;2023-07-29T12:02:48;34.10;99.00
35563;DHT22;21665;40.108;18.302;2023-07-29T12:05:15;34.10;99.20
35563;DHT22;21665;40.108;18.302;2023-07-29T12:07:43;34.30;99.40
35563;DHT22;21665;40.108;18.302;2023-07-29T12:10:10;34.40;99.90
35563;DHT22;21665;40.108;18.302;2023-07-29T12:12:50;34.40;99.80
35563;DHT22;21665;40.108;18.302;2023-07-29T12:15:28;34.40;99.30
35563;DHT22;21665;40.108;18.302;2023-07-29T12:17:56;34.40;99.70
35563;DHT22;21665;40.108;18.302;2023-07-29T12:20:27;34.50;99.40
35563;DHT22;21665;40.108;18.302;2023-07-29T12:22:57;34.10;98.90
35563;DHT22;21665;40.108;18.302;2023-07-29T12:25:25;34.10;99.30
35563;DHT22;21665;40.108;18.302;2023-07-29T12:27:52;34.10;99.10
35563;DHT22;21665;40.108;18.302;2023-07-29T12:30:24;34.10;99.40
35563;DHT22;21665;40.108;18.302;2023-07-29T12:32:52;34.20;99.40
35563;DHT22;21665;40.108;18.302;2023-07-29T12:35:18;34.20;99.30
35563;DHT22;21665;40.108;18.302;2023-07-29T12:37:45;33.90;99.80
35563;DHT22;21665;40.108;18.302;2023-07-29T12:42:50;33.20;99.90
35563;DHT22;21665;40.108;18.302;2023-07-29T12:45:17;33.40;99.90
35563;DHT22;21665;40.108;18.302;2023-07-29T12:47:45;33.80;99.90
35563;DHT22;21665;40.108;18.302;2023-07-29T12:50:11;34.40;99.40
35563;DHT22;21665;40.108;18.302;2023-07-29T12:52:38;34.30;99.10
35563;DHT22;21665;40.108;18.302;2023-07-29T12:55:05;33.40;99.90
35563;DHT22;21665;40.108;18.302;2023-07-29T12:57:43;33.40;99.90
35563;DHT22;21665;40.108;18.302;2023-07-29T13:00:10;33.50;99.90
35563;DHT22;21665;40.108;18.302;2023-07-29T13:02:37;33.50;99.90
35563;DHT22;21665;40.108;18.302;2023-07-29T13:05:04;33.10;99.90
35563;DHT22;21665;40.108;18.302;2023-07-29T13:07:30;32.70;99.90
35563;DHT22;21665;40.108;18.302;2023-07-29T13:09:57;32.40;99.90
35563;DHT22;21665;40.108;18.302;2023-07-29T13:12:23;32.70;99.90
35563;DHT22;21665;40.108;18.302;2023-07-29T13:14:49;32.90;99.90
35563;DHT22;21665;40.108;18.302;2023-07-29T13:17:16;33.10;99.90
35563;DHT22;21665;40.108;18.302;2023-07-29T13:19:42;33.20;99.90
35563;DHT22;21665;40.108;18.302;2023-07-29T13:22:08;33.30;99.90
35563;DHT22;21665;40.108;18.302;2023-07-29T13:24:35;33.30;99.90
35563;DHT22;21665;40.108;18.302;2023-07-29T13:27:01;33.40;99.90
35563;DHT22;21665;40.108;18.302;2023-07-29T13:29:28;33.50;99.90
35563;DHT22;21665;40.108;18.302;2023-07-29T13:31:54;33.80;99.90
35563;DHT22;21665;40.108;18.302;2023-07-29T13:34:20;34.20;99.90
35563;DHT22;21665;40.108;18.302;2023-07-29T13:36:47;34.30;99.90
35563;DHT22;21665;40.108;18.302;2023-07-29T13:39:14;34.40;99.90
35563;DHT22;21665;40.108;18.302;2023-07-29T13:41:40;34.70;99.90
35563;DHT22;21665;40.108;18.302;2023-07-29T13:44:06;34.50;99.90
35563;DHT22;21665;40.108;18.302;2023-07-29T13:46:32;34.30;99.90
35563;DHT22;21665;40.108;18.302;2023-07-29T13:48:59;33.70;99.90
35563;DHT22;21665;40.108;18.302;2023-07-29T13:51:25;33.30;99.90
35563;DHT22;21665;40.108;18.302;2023-07-29T13:53:51;33.20;99.90
35563;DHT22;21665;40.108;18.302;2023-07-29T13:56:18;33.10;99.90
35563;DHT22;21665;40.108;18.302;2023-07-29T13:58:44;33.30;99.90
35563;DHT22;21665;40.108;18.302;2023-07-29T14:01:11;33.10;99.90
35563;DHT22;21665;40.108;18.302;2023-07-29T14:03:37;32.90;99.90
35563;DHT22;21665;40.108;18.302;2023-07-29T14:06:03;32.80;99.90
35563;DHT22;21665;40.108;18.302;2023-07-29T14:08:30;32.70;99.90
35563;DHT22;21665;40.108;18.302;2023-07-29T14:10:56;32.80;99.90
35563;DHT22;21665;40.108;18.302;2023-07-29T14:13:22;32.90;99.90
35563;DHT22;21665;40.108;18.302;2023-07-29T14:15:49;33.10;99.90
35563;DHT22;21665;40.108;18.302;2023-07-29T14:18:15;32.70;99.90
35563;DHT22;21665;40.108;18.302;2023-07-29T14:20:42;32.50;99.90
35563;DHT22;21665;40.108;18.302;2023-07-29T14:23:08;32.50;99.90
35563;DHT22;21665;40.108;18.302;2023-07-29T14:25:34;32.30;99.90
35563;DHT22;21665;40.108;18.302;2023-07-29T14:28:01;32.10;99.90
35563;DHT22;21665;40.108;18.302;2023-07-29T14:30:28;32.20;99.90
35563;DHT22;21665;40.108;18.302;2023-07-29T14:32:55;32.30;99.90
35563;DHT22;21665;40.108;18.302;2023-07-29T14:35:21;32.20;99.90
35563;DHT22;21665;40.108;18.302;2023-07-29T14:37:51;32.30;99.90
35563;DHT22;21665;40.108;18.302;2023-07-29T14:40:17;32.50;99.90
35563;DHT22;21665;40.108;18.302;2023-07-29T14:42:43;32.70;99.90
35563;DHT22;21665;40.108;18.302;2023-07-29T14:45:10;32.30;99.90
35563;DHT22;21665;40.108;18.302;2023-07-29T14:47:39;32.50;99.90
35563;DHT22;21665;40.108;18.302;2023-07-29T14:50:06;32.60;99.90
35563;DHT22;21665;40.108;18.302;2023-07-29T14:52:32;32.20;99.90
35563;DHT22;21665;40.108;18.302;2023-07-29T14:54:58;32.30;99.90
35563;DHT22;21665;40.108;18.302;2023-07-29T14:57:25;32.20;99.90
35563;DHT22;21665;40.108;18.302;2023-07-29T14:59:52;32.30;99.90
35563;DHT22;21665;40.108;18.302;2023-07-29T15:02:18;32.40;99.90
35563;DHT22;21665;40.108;18.302;2023-07-29T15:04:45;32.40;99.90
35563;DHT22;21665;40.108;18.302;2023-07-29T15:07:11;32.20;99.90
35563;DHT22;21665;40.108;18.302;2023-07-29T15:09:37;32.50;99.90
35563;DHT22;21665;40.108;18.302;2023-07-29T15:27:50;32.20;99.90
35563;DHT22;21665;40.108;18.302;2023-07-29T15:30:17;32.50;99.90
35563;DHT22;21665;40.108;18.302;2023-07-29T15:32:44;32.50;99.90
35563;DHT22;21665;40.108;18.302;2023-07-29T15:35:11;32.40;99.90
35563;DHT22;21665;40.108;18.302;2023-07-29T15:37:38;32.30;99.90
35563;DHT22;21665;40.108;18.302;2023-07-29T15:40:05;32.30;99.90
35563;DHT22;21665;40.108;18.302;2023-07-29T15:42:32;32.10;99.90
35563;DHT22;21665;40.108;18.302;2023-07-29T15:45:02;32.10;99.90
35563;DHT22;21665;40.108;18.302;2023-07-29T15:47:29;32.10;99.90
35563;DHT22;21665;40.108;18.302;2023-07-29T15:49:56;32.10;99.90
35563;DHT22;21665;40.108;18.302;2023-07-29T15:52:23;32.10;99.90
35563;DHT22;21665;40.108;18.302;2023-07-29T15:54:49;32.10;99.90
35563;DHT22;21665;40.108;18.302;2023-07-29T15:57:18;32.10;99.90
35563;DHT22;21665;40.108;18.302;2023-07-29T15:59:44;31.90;99.90
35563;DHT22;21665;40.108;18.302;2023-07-29T16:02:11;31.80;99.90
35563;DHT22;21665;40.108;18.302;2023-07-29T16:04:37;31.60;99.90
35563;DHT22;21665;40.108;18.302;2023-07-29T16:07:03;31.60;99.90
35563;DHT22;21665;40.108;18.302;2023-07-29T16:09:33;31.60;99.90
35563;DHT22;21665;40.108;18.302;2023-07-29T16:11:59;31.50;99.90
35563;DHT22;21665;40.108;18.302;2023-07-29T16:14:28;31.60;99.90
35563;DHT22;21665;40.108;18.302;2023-07-29T16:16:54;31.70;99.90
35563;DHT22;21665;40.108;18.302;2023-07-29T16:19:26;31.80;99.90
35563;DHT22;21665;40.108;18.302;2023-07-29T16:21:54;31.60;99.90
35563;DHT22;21665;40.108;18.302;2023-07-29T16:24:21;31.60;99.90
35563;DHT22;21665;40.108;18.302;2023-07-29T16:26:47;31.50;99.90
35563;DHT22;21665;40.108;18.302;2023-07-29T16:29:14;31.30;99.90
35563;DHT22;21665;40.108;18.302;2023-07-29T16:31:40;31.10;99.90
35563;DHT22;21665;40.108;18.302;2023-07-29T16:34:07;31.00;99.90
35563;DHT22;21665;40.108;18.302;2023-07-29T16:36:33;31.00;99.90
35563;DHT22;21665;40.108;18.302;2023-07-29T16:39:00;31.00;99.90
35563;DHT22;21665;40.108;18.302;2023-07-29T16:41:26;31.00;99.90
35563;DHT22;21665;40.108;18.302;2023-07-29T16:43:53;30.80;99.90
35563;DHT22;21665;40.108;18.302;2023-07-29T16:46:19;30.80;99.90
35563;DHT22;21665;40.108;18.302;2023-07-29T16:48:45;30.60;99.90
35563;DHT22;21665;40.108;18.302;2023-07-29T16:51:12;30.40;99.90
35563;DHT22;21665;40.108;18.302;2023-07-29T16:53:38;30.30;99.90
35563;DHT22;21665;40.108;18.302;2023-07-29T16:56:05;30.20;99.90
35563;DHT22;21665;40.108;18.302;2023-07-29T16:58:31;30.10;99.90
35563;DHT22;21665;40.108;18.302;2023-07-29T17:00:57;30.10;99.90
35563;DHT22;21665;40.108;18.302;2023-07-29T17:03:24;30.20;99.90
35563;DHT22;21665;40.108;18.302;2023-07-29T17:05:50;30.10;99.90
35563;DHT22;21665;40.108;18.302;2023-07-29T17:08:19;30.00;99.90
35563;DHT22;21665;40.108;18.302;2023-07-29T17:10:45;29.80;99.90
35563;DHT22;21665;40.108;18.302;2023-07-29T17:13:12;29.90;99.90
35563;DHT22;21665;40.108;18.302;2023-07-29T17:15:38;29.70;99.90
35563;DHT22;21665;40.108;18.302;2023-07-29T17:18:04;29.40;99.90
35563;DHT22;21665;40.108;18.302;2023-07-29T17:20:31;29.40;99.90
35563;DHT22;21665;40.108;18.302;2023-07-29T17:22:57;29.50;99.90
35563;DHT22;21665;40.108;18.302;2023-07-29T17:25:24;29.40;99.90
35563;DHT22;21665;40.108;18.302;2023-07-29T17:27:52;29.30;99.90
35563;DHT22;21665;40.108;18.302;2023-07-29T17:30:24;29.20;99.90
35563;DHT22;21665;40.108;18.302;2023-07-29T17:32:54;29.20;99.90
35563;DHT22;21665;40.108;18.302;2023-07-29T17:35:20;29.00;99.90
35563;DHT22;21665;40.108;18.302;2023-07-29T17:37:47;29.00;99.90
35563;DHT22;21665;40.108;18.302;2023-07-29T17:40:14;28.90;99.90
35563;DHT22;21665;40.108;18.302;2023-07-29T17:42:40;28.80;99.90
35563;DHT22;21665;40.108;18.302;2023-07-29T17:45:07;28.80;99.90
35563;DHT22;21665;40.108;18.302;2023-07-29T17:47:33;28.70;99.90
35563;DHT22;21665;40.108;18.302;2023-07-29T17:50:00;28.70;99.90
35563;DHT22;21665;40.108;18.302;2023-07-29T17:52:27;28.50;99.90
35563;DHT22;21665;40.108;18.302;2023-07-29T17:54:53;28.40;99.90
35563;DHT22;21665;40.108;18.302;2023-07-29T17:57:19;28.40;99.90
35563;DHT22;21665;40.108;18.302;2023-07-29T17:59:46;28.20;99.90
35563;DHT22;21665;40.108;18.302;2023-07-29T18:02:12;28.20;99.90
35563;DHT22;21665;40.108;18.302;2023-07-29T18:04:39;28.10;99.90
35563;DHT22;21665;40.108;18.302;2023-07-29T18:07:05;28.00;99.90
35563;DHT22;21665;40.108;18.302;2023-07-29T18:09:31;28.00;99.90
35563;DHT22;21665;40.108;18.302;2023-07-29T18:11:58;27.90;99.90
35563;DHT22;21665;40.108;18.302;2023-07-29T18:14:27;27.80;99.90
35563;DHT22;21665;40.108;18.302;2023-07-29T18:16:55;27.70;99.90
35563;DHT22;21665;40.108;18.302;2023-07-29T18:19:21;27.60;99.90